Latest Weather Observations for Cooktown

IDQ60801

Issued at 11:35 am EST Saturday 1 November 2014 (issued every 30 minutes, with the page automatically refreshed every 10 minutes)

About weather observations | Map of weather stations | Latest weather observations for QLD | Other Formats
Station Details ID: 031209 Name: COOKTOWN AIRPORT Lat: -15.45 Lon: 145.19 Height: 4.8 m
Data from the previous 72 hours. | See also: Recent months at Cooktown
Date/Time
EST
Temp
°C
App
Temp
°C
Dew
Point
Rel
Hum
%
Delta-T
°C
Wind Press
QNH
hPa
Press
MSL
hPa
Rain
since 9 am
mm
Dir
 
Spd
km/h
Gust
km/h
Spd
kts
Gust
kts
01/11:30am 29.9 29.4 20.0 55 6.5 E 22 32 12 17 1014.0 - 0.0
01/11:00am 29.1 28.6 20.8 61 5.5 E 24 35 13 19 1014.3 - 0.0
01/10:30am 29.1 28.2 20.6 60 5.6 E 26 35 14 19 1014.4 - 0.0
01/10:00am 29.6 28.8 20.9 59 5.8 E 26 33 14 18 1014.5 - 0.0
01/09:30am 29.1 28.4 20.3 59 5.8 E 24 35 13 19 1014.6 - 0.0
01/09:00am 28.3 27.0 20.7 63 5.0 E 28 35 15 19 1014.5 1014.4 0.0
01/08:30am 27.5 26.5 21.3 69 4.1 E 28 33 15 18 1014.5 - 0.0
01/08:00am 28.0 28.1 21.2 66 4.5 ESE 22 30 12 16 1014.3 - 0.0
01/07:43am 27.1 27.4 21.5 71 3.7 E 22 30 12 16 1014.1 - 0.0
01/07:30am 26.5 26.8 21.5 74 3.3 E 22 30 12 16 1014.0 - 0.0
01/07:00am 25.7 26.7 21.8 79 2.6 E 19 24 10 13 1013.7 - 0.0
01/06:54am 25.7 26.5 21.8 79 2.6 E 20 28 11 15 1013.5 - 0.0
01/06:30am 25.6 27.3 21.7 79 2.6 ESE 15 20 8 11 1013.2 - 0.0
01/06:00am 24.7 26.0 21.7 83 2.0 ESE 17 24 9 13 1012.8 1012.7 0.0
01/05:30am 24.6 25.5 21.6 83 2.0 ESE 19 26 10 14 1012.5 - 0.0
01/05:29am 24.7 25.6 21.5 82 2.1 ESE 19 26 10 14 1012.5 - 0.0
01/05:00am 24.9 26.8 22.1 84 1.9 E 15 22 8 12 1012.2 - 0.0
01/04:30am 24.9 27.0 21.7 82 2.1 ESE 13 19 7 10 1011.8 - 0.0
01/04:00am 24.7 26.2 21.2 81 2.3 ESE 15 24 8 13 1011.6 - 0.0
01/03:52am 24.5 26.2 21.0 81 2.3 ESE 13 17 7 9 1011.5 - 0.0
01/03:46am 24.3 26.0 20.9 81 2.2 ESE 13 19 7 10 1011.4 - 0.0
01/03:31am 24.6 25.9 20.9 80 2.4 ESE 15 20 8 11 1011.3 - 0.0
01/03:30am 24.5 25.9 21.0 81 2.3 ESE 15 20 8 11 1011.3 - 0.0
01/03:00am 24.5 26.3 21.2 82 2.2 ESE 13 19 7 10 1011.2 1011.1 0.0
01/02:52am 24.5 26.0 21.2 82 2.2 ESE 15 20 8 11 1011.2 - 0.0
01/02:30am 24.1 26.0 21.4 85 1.8 ESE 13 20 7 11 1011.4 - 0.0
01/02:00am 24.3 26.5 21.1 82 2.1 ESE 11 15 6 8 1011.6 - 0.0
01/01:30am 24.7 26.2 21.2 81 2.3 ESE 15 22 8 12 1011.7 - 0.0
01/01:18am 24.9 25.9 21.1 79 2.5 ESE 17 26 9 14 1011.9 - 0.0
01/01:00am 24.7 26.5 21.2 81 2.3 ESE 13 20 7 11 1012.1 - 0.0
01/12:30am 24.6 26.9 21.3 82 2.2 SE 11 17 6 9 1012.5 - 0.0
01/12:00am 24.8 26.3 21.3 81 2.3 ESE 15 26 8 14 1012.8 1012.7 0.0
 
Date/Time
EST
Temp
°C
App
Temp
°C
Dew
Point
Rel
Hum
%
Delta-T
°C
Wind Press
QNH
hPa
Press
MSL
hPa
Rain
since 9 am
mm
Dir
 
Spd
km/h
Gust
km/h
Spd
kts
Gust
kts
31/11:56pm 24.9 26.4 21.3 80 2.4 SE 15 22 8 12 1012.8 - 0.0
31/11:44pm 24.8 26.6 21.2 80 2.4 SE 13 20 7 11 1013.0 - 0.0
31/11:42pm 24.8 26.3 21.2 80 2.4 SE 15 20 8 11 1013.1 - 0.0
31/11:30pm 24.8 26.7 21.3 81 2.3 SE 13 19 7 10 1013.2 - 0.0
31/11:20pm 24.7 27.1 21.5 82 2.1 SE 11 19 6 10 1013.2 - 0.0
31/11:00pm 24.2 26.9 21.3 84 1.9 SE 9 15 5 8 1013.4 - 0.0
31/10:33pm 24.1 27.0 21.1 83 2.0 SSE 7 11 4 6 1013.7 - 0.0
31/10:30pm 24.1 27.0 21.1 83 2.0 SSE 7 11 4 6 1013.7 - 0.0
31/10:00pm 24.3 27.1 20.9 81 2.2 SE 7 13 4 7 1013.7 - 0.0
31/09:55pm 24.3 26.8 21.1 82 2.1 SE 9 13 5 7 1013.7 - 0.0
31/09:30pm 24.3 27.1 20.9 81 2.2 SSE 7 9 4 5 1013.6 - 0.0
31/09:00pm 24.6 26.3 20.9 80 2.4 SE 13 20 7 11 1013.4 1013.2 0.0
31/08:30pm 24.8 26.4 20.8 78 2.6 SE 13 20 7 11 1013.1 - 0.0
31/08:00pm 24.7 26.7 20.7 78 2.6 SE 11 24 6 13 1012.7 - 0.0
31/07:43pm 24.8 26.0 20.7 78 2.7 SE 15 22 8 12 1012.4 - 0.0
31/07:30pm 24.8 27.1 20.7 78 2.7 SE 9 17 5 9 1012.2 - 0.0
31/07:07pm 24.9 26.8 20.6 77 2.8 ESE 11 19 6 10 1012.0 - 0.0
31/07:00pm 24.7 26.6 20.6 78 2.7 SE 11 15 6 8 1012.0 - 0.0
31/06:30pm 25.0 26.3 20.2 74 3.1 ESE 13 20 7 11 1011.7 - 0.0
31/06:00pm 25.6 25.9 19.6 69 3.9 ESE 17 26 9 14 1011.5 1011.4 0.0
31/05:30pm 26.2 26.2 18.9 64 4.7 SE 17 24 9 13 1011.2 - 0.0
31/05:00pm 27.3 27.5 18.5 58 5.6 SE 15 20 8 11 1010.8 - 0.0
31/04:30pm 27.7 26.2 17.7 54 6.3 E 22 32 12 17 1010.7 - 0.0
31/04:00pm 27.7 26.1 18.3 56 6.0 ESE 24 35 13 19 1010.8 - 0.0
31/03:30pm 28.6 26.0 16.8 48 7.4 E 26 33 14 18 1011.0 - 0.0
31/03:00pm 28.4 26.2 16.9 49 7.2 E 24 32 13 17 1011.0 1010.9 0.0
31/02:30pm 29.1 26.5 16.0 45 8.1 E 24 32 13 17 1011.0 - 0.0
31/02:00pm 28.6 26.8 17.9 52 6.8 E 24 32 13 17 1011.2 - 0.0
31/01:30pm 28.5 26.6 17.6 51 6.9 E 24 32 13 17 1011.4 - 0.0
31/01:00pm 29.2 27.3 18.6 52 6.8 E 26 33 14 18 1011.7 - 0.0
31/12:30pm 29.5 27.4 17.1 47 7.8 E 24 32 13 17 1012.1 - 0.0
31/12:00pm 29.2 27.7 16.7 46 7.8 E 20 33 11 18 1012.5 1012.4 0.0
31/11:30am 28.8 27.4 17.0 49 7.4 E 20 30 11 16 1012.9 - 0.0
31/11:00am 28.7 27.1 18.4 53 6.6 E 24 33 13 18 1013.4 - 0.0
31/10:30am 29.2 28.1 17.7 50 7.3 E 20 35 11 19 1013.8 - 0.0
31/10:00am 28.4 26.7 18.0 53 6.6 ESE 24 32 13 17 1014.1 - 0.0
31/09:30am 28.6 27.4 18.3 53 6.6 ESE 22 32 12 17 1014.3 - 0.0
31/09:00am 28.1 27.7 19.3 58 5.7 ESE 20 32 11 17 1014.1 1014.0 0.0
31/08:30am 28.1 26.6 19.5 59 5.6 E 26 32 14 17 1014.1 - 0.0
31/08:00am 27.1 26.1 18.8 60 5.3 E 22 35 12 19 1014.0 - 0.0
31/07:30am 26.2 25.6 18.8 63 4.7 ESE 20 30 11 16 1013.6 - 0.0
31/07:00am 25.2 25.3 19.1 69 3.9 ESE 17 24 9 13 1013.3 - 0.0
31/06:30am 24.7 25.2 19.2 71 3.5 ESE 15 20 8 11 1012.8 - 0.0
31/06:00am 24.5 23.8 19.5 73 3.2 ESE 22 30 12 16 1012.2 1012.1 0.0
31/05:30am 24.5 24.0 19.9 75 3.0 E 22 32 12 17 1011.7 - 0.0
31/05:00am 24.2 24.2 20.2 78 2.6 ESE 20 30 11 16 1011.6 - 0.0
31/04:30am 23.8 24.2 19.9 79 2.5 ESE 17 28 9 15 1011.3 - 0.0
31/04:00am 23.5 24.3 19.9 80 2.3 ESE 15 22 8 12 1011.3 - 0.0
31/03:30am 23.5 24.0 20.1 81 2.2 E 17 20 9 11 1011.5 - 0.0
31/03:00am 23.7 23.6 19.5 77 2.7 ESE 19 24 10 13 1011.5 1011.5 0.0
31/02:30am 23.9 24.0 19.2 75 3.0 ESE 17 26 9 14 1011.5 - 0.0
31/02:00am 23.9 23.6 19.2 75 3.0 ESE 19 28 10 15 1011.7 - 0.0
31/01:30am 23.7 23.4 19.2 76 2.9 ESE 19 24 10 13 1011.9 - 0.0
31/01:00am 24.0 23.7 19.5 76 2.9 ESE 20 28 11 15 1012.3 - 0.0
31/12:30am 24.1 23.8 19.2 74 3.1 ESE 19 26 10 14 1012.6 - 0.0
31/12:00am 24.3 23.6 19.5 74 3.1 ESE 22 32 12 17 1012.9 1012.9 0.0
 
Date/Time
EST
Temp
°C
App
Temp
°C
Dew
Point
Rel
Hum
%
Delta-T
°C
Wind Press
QNH
hPa
Press
MSL
hPa
Rain
since 9 am
mm
Dir
 
Spd
km/h
Gust
km/h
Spd
kts
Gust
kts
30/11:30pm 24.5 23.5 19.7 74 3.1 E 24 32 13 17 1013.1 - 0.0
30/11:00pm 24.7 24.3 20.2 76 2.9 ESE 22 30 12 16 1013.2 - 0.0
30/10:30pm 24.8 25.0 20.2 75 3.0 ESE 19 28 10 15 1013.2 - 0.0
30/10:00pm 24.4 25.1 19.7 75 3.0 ESE 15 22 8 12 1013.1 - 0.0
30/09:30pm 24.6 24.5 19.6 73 3.2 ESE 19 28 10 15 1012.8 - 0.0
30/09:00pm 24.4 24.6 19.4 73 3.2 ESE 17 26 9 14 1012.5 1012.4 0.0
30/08:30pm 24.5 25.2 19.7 74 3.1 ESE 15 22 8 12 1012.2 - 0.0
30/08:00pm 24.4 25.5 19.7 75 3.0 ESE 13 24 7 13 1012.1 - 0.0
30/07:30pm 24.5 25.6 19.7 74 3.1 ESE 13 20 7 11 1011.9 - 0.0
30/07:00pm 24.8 25.8 19.5 72 3.4 ESE 13 20 7 11 1011.6 - 0.0
30/06:30pm 24.8 25.0 19.3 71 3.5 ESE 17 24 9 13 1011.4 - 0.0
30/06:00pm 25.6 25.6 19.0 67 4.2 ESE 17 26 9 14 1011.1 1011.0 0.0
30/05:30pm 26.2 26.3 19.2 65 4.5 ESE 17 26 9 14 1011.0 - 0.0
30/05:00pm 27.0 26.4 18.9 61 5.2 SE 20 30 11 16 1010.9 - 0.0
30/04:30pm 27.7 27.2 18.7 58 5.8 ESE 19 30 10 16 1010.8 - 0.0
30/04:00pm 27.3 25.6 18.0 56 5.9 E 24 32 13 17 1010.8 - 0.0
30/03:30pm 28.2 26.9 18.2 54 6.4 SE 22 30 12 16 1010.9 - 0.0
30/03:00pm 28.2 26.7 18.5 55 6.2 SE 24 32 13 17 1011.0 1010.9 0.0
30/02:30pm 27.6 26.4 18.4 57 5.9 ESE 22 33 12 18 1011.2 - 0.0
30/02:00pm 27.7 25.1 18.7 58 5.8 E 30 41 16 22 1011.6 - 0.0
30/01:30pm 28.1 25.6 18.0 54 6.4 ESE 28 37 15 20 1011.8 - 0.0
30/01:00pm 28.9 26.1 17.3 49 7.3 E 28 37 15 20 1012.2 - 0.0
30/12:30pm 27.9 25.4 17.2 52 6.7 ESE 26 41 14 22 1012.7 - 0.0
30/12:00pm 28.1 26.3 17.8 53 6.5 ESE 24 35 13 19 1013.3 1013.3 0.0
30/11:30am 28.8 26.3 18.0 52 6.9 E 28 37 15 20 1013.8 - 0.0
30/11:00am 28.7 25.5 17.3 50 7.2 E 30 39 16 21 1014.0 - 0.0
30/10:30am 29.3 26.8 17.1 47 7.7 E 26 35 14 19 1014.0 - 0.0
30/10:00am 28.2 26.5 17.2 51 6.9 E 22 35 12 19 1014.1 - 0.0
30/09:30am 28.3 26.9 17.9 53 6.6 E 22 32 12 17 1014.3 - 0.0
30/09:00am 27.7 26.6 18.6 57 5.8 ESE 22 30 12 16 1014.3 1014.2 0.0
30/08:30am 27.6 26.7 19.1 59 5.5 E 22 32 12 17 1014.3 - 0.0
30/08:00am 26.5 26.0 19.0 63 4.8 E 20 30 11 16 1013.8 - 0.0
30/07:30am 26.1 25.7 19.3 66 4.4 E 20 28 11 15 1013.5 - 0.0
30/07:00am 24.4 26.4 19.9 76 2.9 ESE 9 17 5 9 1013.4 - 0.0
30/06:30am 21.0 24.6 19.7 92 0.8 CALM 0 0 0 0 1012.9 - 0.0
30/06:00am 20.0 23.2 18.9 93 0.7 CALM 0 0 0 0 1012.5 1012.4 0.0
30/05:30am 19.9 23.1 18.8 93 0.7 CALM 0 0 0 0 1012.2 - 0.0
30/05:00am 20.4 23.7 19.1 92 0.8 CALM 0 0 0 0 1011.9 - 0.0
30/04:30am 21.1 24.5 19.4 90 1.1 CALM 0 4 0 2 1011.6 - 0.0
30/04:00am 23.0 24.9 19.7 82 2.1 ESE 9 13 5 7 1011.7 - 0.0
30/03:30am 22.6 25.0 19.6 83 1.9 ESE 6 9 3 5 1011.6 - 0.0
30/03:00am 22.7 24.3 19.2 80 2.2 E 9 13 5 7 1011.7 1011.7 0.0
30/02:30am 23.6 24.6 19.4 77 2.7 E 13 17 7 9 1011.9 - 0.0
30/02:00am 24.3 26.1 19.6 75 3.0 ESE 9 15 5 8 1012.1 - 0.0
30/01:30am 24.1 25.4 19.4 75 3.0 E 11 13 6 7 1012.3 - 0.0
30/01:00am 24.1 24.6 19.2 74 3.1 E 15 20 8 11 1012.5 - 0.0
30/12:30am 24.1 24.7 19.4 75 3.0 E 15 22 8 12 1012.9 - 0.0
30/12:00am 24.0 24.6 19.5 76 2.9 E 15 24 8 13 1013.0 1013.0 0.0
 
Date/Time
EST
Temp
°C
App
Temp
°C
Dew
Point
Rel
Hum
%
Delta-T
°C
Wind Press
QNH
hPa
Press
MSL
hPa
Rain
since 9 am
mm
Dir
 
Spd
km/h
Gust
km/h
Spd
kts
Gust
kts
29/11:30pm 23.9 25.0 19.7 77 2.7 E 13 19 7 10 1013.2 - 0.0
29/11:22pm 24.0 24.7 19.6 76 2.8 E 15 20 8 11 1013.3 - 0.0
29/11:00pm 23.8 25.8 19.9 79 2.5 E 9 15 5 8 1013.4 - 0.0
29/10:47pm 23.8 25.4 19.9 79 2.5 E 11 15 6 8 1013.4 - 0.0
29/10:30pm 23.6 25.1 19.7 79 2.5 E 11 19 6 10 1013.6 - 0.0
29/10:00pm 24.0 25.4 19.6 76 2.8 E 11 15 6 8 1013.8 - 0.0
29/09:30pm 23.8 25.3 19.8 78 2.6 ESE 11 17 6 9 1013.7 - 0.0
29/09:00pm 23.5 25.0 19.8 80 2.4 ESE 11 15 6 8 1013.4 1013.3 0.0
29/08:30pm 22.8 24.6 19.5 81 2.1 E 9 13 5 7 1013.2 - 0.0
29/08:00pm 22.6 23.1 19.3 81 2.1 E 15 17 8 9 1012.9 - 0.0
29/07:30pm 23.7 25.5 19.5 77 2.7 ESE 9 15 5 8 1012.6 - 0.0
29/07:00pm 24.0 24.4 19.1 74 3.1 E 15 20 8 11 1012.5 - 0.0
29/06:30pm 24.2 24.8 19.4 74 3.1 E 15 24 8 13 1012.4 - 0.0
29/06:00pm 25.2 25.4 19.3 70 3.8 E 17 26 9 14 1012.3 1012.1 0.0
29/05:30pm 25.9 24.8 19.4 67 4.2 E 24 33 13 18 1012.2 - 0.0
29/05:00pm 27.0 25.6 18.9 61 5.2 E 24 32 13 17 1011.8 - 0.0
29/04:30pm 26.9 25.3 18.4 59 5.4 E 24 33 13 18 1011.7 - 0.0
29/04:00pm 27.0 25.0 18.2 58 5.6 E 26 33 14 18 1011.6 - 0.0
29/03:30pm 27.8 26.3 18.6 57 5.9 E 24 35 13 19 1011.4 - 0.0
29/03:00pm 28.0 26.8 18.3 55 6.2 E 22 30 12 16 1011.5 1011.5 0.0
29/02:30pm 27.8 26.0 17.9 54 6.3 E 24 35 13 19 1011.8 - 0.0
29/02:00pm 28.3 26.4 17.7 52 6.7 E 24 33 13 18 1012.3 - 0.0
29/01:30pm 28.3 26.1 17.0 50 7.1 E 24 32 13 17 1012.5 - 0.0
29/01:00pm 28.6 27.0 17.5 51 7.0 E 22 30 12 16 1012.9 - 0.0
29/12:30pm 28.0 25.5 17.2 52 6.8 E 26 35 14 19 1013.2 - 0.0
29/12:00pm 27.6 25.4 17.0 52 6.6 ENE 24 35 13 19 1013.7 1013.7 0.0

Other Formats:

Comma delimited format used in spreadsheet applications
http://www.bom.gov.au/fwo/IDQ60801/IDQ60801.95283.axf

JavaScript Object Notation format (JSON) in row-major order
http://www.bom.gov.au/fwo/IDQ60801/IDQ60801.95283.json